Time;durP1;ratioP1;P1;durP2;ratioP2;P2;SDS_P1;SDS_P2;PMS_P1;PMS_P2;Temp;Humidity;BMP_temperature;BMP_pressure;BME280_temperature;BME280_humidity;BME280_pressure;Samples;Min_cycle;Max_cycle;Signal;HPM_P1;HPM_P2
2023/07/27 00:02:14;;;;;;;;;2.00;2.00;;;;;21.95;55.69;100783.63;5004971;28;69704;-47
2023/07/27 00:04:39;;;;;;;;;1.00;1.00;;;;;21.93;56.81;100781.06;5004725;28;51911;-45
2023/07/27 00:07:04;;;;;;;;;1.00;1.00;;;;;21.93;56.79;100783.78;5005314;28;64347;-48
2023/07/27 00:09:30;;;;;;;;;1.50;1.00;;;;;21.94;56.21;100787.31;5005783;28;45349;-46
2023/07/27 00:11:56;;;;;;;;;2.00;2.00;;;;;21.96;55.28;100785.31;5005929;28;45409;-46
2023/07/27 00:14:21;;;;;;;;;1.00;1.00;;;;;22.04;55.07;100787.28;5005875;28;48003;-45
2023/07/27 00:16:46;;;;;;;;;1.00;1.00;;;;;22.11;55.03;100785.66;5006388;28;45273;-45
2023/07/27 00:19:12;;;;;;;;;1.33;1.33;;;;;22.08;57.82;100784.09;5006046;28;45404;-45
2023/07/27 00:21:37;;;;;;;;;0.00;0.00;;;;;22.05;57.32;100778.16;5005347;28;64249;-48
2023/07/27 00:24:02;;;;;;;;;1.67;1.67;;;;;22.05;55.85;100767.31;5005455;28;61705;-49
2023/07/27 00:26:28;;;;;;;;;0.67;0.67;;;;;22.05;56.79;100765.44;5006083;28;45289;-45
2023/07/27 00:28:53;;;;;;;;;1.00;1.00;;;;;22.07;56.64;100765.28;5006060;28;45644;-45
2023/07/27 00:31:18;;;;;;;;;0.67;0.67;;;;;22.05;56.21;100764.63;5004857;28;68815;-45
2023/07/27 00:33:44;;;;;;;;;3.00;1.00;;;;;22.08;56.35;100762.44;5004638;28;70354;-47
2023/07/27 00:36:09;;;;;;;;;2.33;1.00;;;;;22.10;56.42;100757.72;5005136;28;68267;-44
2023/07/27 00:38:34;;;;;;;;;1.00;1.00;;;;;22.10;57.04;100762.31;5005533;28;48570;-45
2023/07/27 00:41:00;;;;;;;;;2.00;2.00;;;;;22.09;56.47;100766.84;5005020;28;71229;-44
2023/07/27 00:43:25;;;;;;;;;1.33;1.33;;;;;22.10;56.48;100763.13;5005507;28;45486;-46
2023/07/27 00:45:51;;;;;;;;;2.00;2.00;;;;;22.16;56.41;100768.94;5005012;28;62021;-46
2023/07/27 00:48:17;;;;;;;;;2.00;2.00;;;;;22.21;56.54;100758.50;5004458;28;45489;-44
2023/07/27 00:50:42;;;;;;;;;1.00;1.00;;;;;22.22;56.49;100755.63;5001137;28;46396;-45
2023/07/27 00:53:08;;;;;;;;;1.25;1.25;;;;;22.23;56.56;100757.34;5001216;28;67912;-44
2023/07/27 00:55:35;;;;;;;;;0.75;0.75;;;;;22.23;56.55;100748.38;5005288;28;53318;-44
2023/07/27 00:58:01;;;;;;;;;1.75;1.75;;;;;22.24;56.65;100748.22;5004771;28;45495;-45
2023/07/27 01:00:27;;;;;;;;;1.25;1.25;;;;;22.29;56.03;100742.31;4998164;28;45833;-46
2023/07/27 01:02:53;;;;;;;;;1.00;1.00;;;;;22.30;56.44;100738.63;4998282;28;45362;-45
2023/07/27 01:05:18;;;;;;;;;1.25;1.25;;;;;22.33;56.17;100745.59;5002503;28;45158;-49
2023/07/27 01:07:43;;;;;;;;;1.00;1.00;;;;;22.32;56.52;100739.31;5001188;28;65956;-45
2023/07/27 01:10:10;;;;;;;;;1.75;1.75;;;;;22.34;56.42;100736.47;5002251;28;45360;-47
2023/07/27 01:12:43;;;;;;;;;2.75;1.75;;;;;22.36;56.39;100739.88;5000311;28;55977;-46
2023/07/27 01:15:14;;;;;;;;;3.00;1.00;;;;;22.34;56.65;100731.03;5002361;28;45373;-44
2023/07/27 01:17:45;;;;;;;;;2.00;1.00;;;;;22.29;56.55;100720.66;5002022;28;45416;-45
2023/07/27 01:20:13;;;;;;;;;2.00;2.00;;;;;22.29;56.50;100724.22;5001773;28;46414;-45
2023/07/27 01:22:48;;;;;;;;;1.00;1.00;;;;;22.26;58.03;100724.53;5002001;28;45318;-45
2023/07/27 01:25:34;;;;;;;;;1.75;1.75;;;;;22.21;56.86;100726.84;5001989;28;45481;-46
2023/07/27 01:28:26;;;;;;;;;1.00;1.00;;;;;22.20;56.85;100724.28;5001994;28;46184;-45
2023/07/27 01:31:22;;;;;;;;;1.00;1.00;;;;;22.20;57.47;100727.88;5001561;28;46993;-49
2023/07/27 01:33:52;;;;;;;;;2.00;2.00;;;;;22.18;58.66;100723.63;5000176;28;45252;-45
2023/07/27 01:36:25;;;;;;;;;1.67;1.67;;;;;22.12;57.41;100712.41;5000776;28;45454;-47
2023/07/27 01:38:52;;;;;;;;;1.00;1.00;;;;;22.08;58.90;100715.56;5000620;28;45498;-48
2023/07/27 01:41:18;;;;;;;;;1.00;1.00;;;;;21.98;57.94;100705.66;5001891;28;46401;-46
2023/07/27 01:43:43;;;;;;;;;1.00;1.00;;;;;21.95;57.90;100700.56;5000624;28;45254;-45
2023/07/27 01:46:11;;;;;;;;;1.50;1.50;;;;;21.92;58.47;100703.53;4997064;28;45413;-45
2023/07/27 01:48:38;;;;;;;;;1.00;1.00;;;;;21.91;58.04;100701.84;4998717;28;45429;-48
2023/07/27 01:51:04;;;;;;;;;1.00;1.00;;;;;21.91;58.10;100703.69;5001316;28;45435;-46
2023/07/27 01:53:30;;;;;;;;;2.00;1.00;;;;;21.91;58.37;100704.53;4999096;28;73269;-45
2023/07/27 01:55:56;;;;;;;;;0.25;0.25;;;;;21.87;60.12;100695.03;5001361;28;49298;-47
2023/07/27 01:58:21;;;;;;;;;1.75;1.00;;;;;21.84;59.34;100694.47;4997130;28;45567;-45
2023/07/27 02:00:48;;;;;;;;;1.00;1.00;;;;;21.79;59.22;100686.84;4992393;28;46091;-46
2023/07/27 02:03:13;;;;;;;;;1.00;1.00;;;;;21.76;58.90;100682.56;5001192;28;45441;-47
2023/07/27 02:05:38;;;;;;;;;1.00;1.00;;;;;21.75;60.47;100697.09;4999688;28;60791;-47
2023/07/27 02:08:04;;;;;;;;;0.67;0.67;;;;;21.72;58.39;100688.44;5000657;28;69956;-45
2023/07/27 02:10:31;;;;;;;;;1.00;1.00;;;;;21.72;58.54;100696.56;4998961;28;52532;-46
2023/07/27 02:13:00;;;;;;;;;0.75;0.75;;;;;21.73;58.92;100692.84;4999956;28;45341;-46
2023/07/27 02:15:32;;;;;;;;;1.00;1.00;;;;;21.75;58.25;100691.69;5000206;28;45246;-48
2023/07/27 02:18:03;;;;;;;;;1.00;1.00;;;;;21.75;58.54;100685.44;5001010;28;45371;-47
2023/07/27 02:20:31;;;;;;;;;1.00;1.00;;;;;21.72;60.20;100678.47;4999850;28;46939;-47
2023/07/27 02:22:56;;;;;;;;;3.00;1.00;;;;;;;;5001242;28;45469;-44
2023/07/27 02:25:22;;;;;;;;;0.00;0.00;;;;;21.64;58.63;100673.81;5001060;28;45426;-46
2023/07/27 02:27:47;;;;;;;;;0.33;0.00;;;;;21.63;58.71;100682.09;4999140;28;62284;-46
2023/07/27 02:30:12;;;;;;;;;1.00;1.00;;;;;21.59;59.20;100678.84;5001002;28;46248;-46
2023/07/27 02:32:38;;;;;;;;;0.00;0.00;;;;;21.61;58.92;100681.38;5000862;28;45467;-48
2023/07/27 02:35:03;;;;;;;;;1.00;1.00;;;;;21.64;59.19;100678.38;5001036;28;45397;-49
2023/07/27 02:37:29;;;;;;;;;1.00;1.00;;;;;21.66;59.59;100668.25;5001075;28;45906;-49
2023/07/27 02:39:54;;;;;;;;;0.00;0.00;;;;;21.63;60.08;100668.56;4998762;28;64531;-47
2023/07/27 02:42:19;;;;;;;;;1.00;1.00;;;;;21.61;60.25;100667.84;4999910;28;70339;-47
2023/07/27 02:44:45;;;;;;;;;0.00;0.00;;;;;21.56;61.01;100668.31;5000124;28;63961;-49
2023/07/27 02:47:10;;;;;;;;;1.00;1.00;;;;;21.55;61.27;100660.34;4999555;28;67332;-49
2023/07/27 02:49:35;;;;;;;;;1.25;1.25;;;;;21.58;61.09;100660.91;4999933;28;70550;-46
2023/07/27 02:52:01;;;;;;;;;0.00;0.00;;;;;21.55;61.94;100663.03;4999824;28;69881;-48
2023/07/27 02:54:26;;;;;;;;;0.00;0.00;;;;;21.48;61.76;100666.34;5000549;28;45405;-45
2023/07/27 02:56:51;;;;;;;;;0.00;0.00;;;;;21.43;61.25;100673.19;5000477;28;56729;-45
2023/07/27 02:59:17;;;;;;;;;0.00;0.00;;;;;21.40;61.58;100668.09;4999791;28;72295;-47
2023/07/27 03:01:42;;;;;;;;;1.00;1.00;;;;;21.38;61.71;100670.09;4999404;28;73903;-47
2023/07/27 03:04:07;;;;;;;;;1.00;1.00;;;;;21.36;62.61;100669.41;4999665;28;68165;-45
2023/07/27 03:06:32;;;;;;;;;0.00;0.00;;;;;21.30;62.25;100666.28;5000559;28;45279;-46
2023/07/27 03:08:58;;;;;;;;;0.00;0.00;;;;;21.29;61.61;100669.16;4999781;28;65361;-49
2023/07/27 03:11:23;;;;;;;;;0.00;0.00;;;;;21.26;62.55;100670.31;4999368;28;71197;-50
2023/07/27 03:13:50;;;;;;;;;0.00;0.00;;;;;21.25;61.81;100674.00;4999725;28;65393;-45
2023/07/27 03:16:15;;;;;;;;;0.00;0.00;;;;;21.26;62.36;100666.72;5000327;28;45437;-45
2023/07/27 03:18:40;;;;;;;;;0.00;0.00;;;;;21.26;62.36;100664.03;5000298;28;45368;-47
2023/07/27 03:21:06;;;;;;;;;0.50;0.50;;;;;21.25;63.17;100674.00;4998273;28;45355;-48
2023/07/27 03:23:33;;;;;;;;;1.00;1.00;;;;;21.22;61.76;100670.75;4999894;28;45404;-49
2023/07/27 03:25:58;;;;;;;;;1.00;1.00;;;;;21.17;62.29;100670.34;5000077;28;46354;-47
2023/07/27 03:28:23;;;;;;;;;0.00;0.00;;;;;21.10;62.09;100675.50;4999029;28;65454;-46
2023/07/27 03:30:49;;;;;;;;;0.25;0.25;;;;;21.06;62.67;100677.63;4997744;28;72215;-46
2023/07/27 03:33:14;;;;;;;;;0.00;0.00;;;;;21.05;63.01;100685.91;4999265;28;65188;-45
2023/07/27 03:35:39;;;;;;;;;0.00;0.00;;;;;21.05;62.82;100680.50;5000003;28;45399;-48
2023/07/27 03:38:05;;;;;;;;;0.25;0.25;;;;;21.06;62.47;100680.34;5000156;28;45400;-49
2023/07/27 03:40:30;;;;;;;;;0.25;0.25;;;;;21.07;62.69;100683.91;4999838;28;45436;-45
2023/07/27 03:42:55;;;;;;;;;0.25;0.25;;;;;21.09;63.36;100684.59;4998068;28;62772;-49
2023/07/27 03:45:21;;;;;;;;;1.00;1.00;;;;;21.09;63.25;100676.47;4999123;28;62716;-49
2023/07/27 03:47:46;;;;;;;;;0.00;0.00;;;;;21.10;62.55;100680.91;4998725;28;72523;-46
2023/07/27 03:50:12;;;;;;;;;0.00;0.00;;;;;21.07;62.45;100673.94;4999321;28;54405;-45
2023/07/27 03:52:37;;;;;;;;;0.00;0.00;;;;;21.06;62.19;100669.53;5000249;28;45333;-47
2023/07/27 03:55:03;;;;;;;;;0.50;0.50;;;;;21.05;62.37;100669.69;4999815;28;45337;-47
2023/07/27 03:57:28;;;;;;;;;0.00;0.00;;;;;21.05;63.40;100666.97;4999693;28;46214;-50
2023/07/27 03:59:57;;;;;;;;;0.25;0.25;;;;;21.07;63.21;100682.03;4999440;28;54103;-49
2023/07/27 04:02:24;;;;;;;;;0.00;0.00;;;;;21.07;63.40;100675.81;4999749;28;45489;-46
2023/07/27 04:04:49;;;;;;;;;0.25;0.25;;;;;21.06;62.54;100668.69;4999646;28;45397;-46
2023/07/27 04:07:14;;;;;;;;;0.00;0.00;;;;;21.02;63.33;100684.34;4997951;28;69537;-47
2023/07/27 04:09:40;;;;;;;;;0.75;0.75;;;;;21.00;63.04;100678.22;4999903;28;45476;-46
2023/07/27 04:12:06;;;;;;;;;0.50;0.00;;;;;21.01;63.74;100677.22;4997796;28;61882;-48
2023/07/27 04:14:31;;;;;;;;;0.50;0.50;;;;;21.03;64.04;100675.25;4995218;28;45388;-49
2023/07/27 04:16:56;;;;;;;;;0.00;0.00;;;;;21.02;64.04;100669.97;4990063;28;72677;-47
2023/07/27 04:19:22;;;;;;;;;0.75;0.75;;;;;20.98;63.29;100667.56;4998500;28;68223;-50
2023/07/27 04:21:47;;;;;;;;;1.00;0.00;;;;;20.98;63.51;100667.56;4998700;28;61447;-49
2023/07/27 04:24:12;;;;;;;;;2.00;0.00;;;;;20.99;63.96;100663.88;4997118;28;70327;-49
2023/07/27 04:26:37;;;;;;;;;1.00;1.00;;;;;20.97;63.87;100665.84;4998571;28;70389;-49
2023/07/27 04:29:03;;;;;;;;;0.00;0.00;;;;;20.94;63.46;100660.75;4998688;28;63584;-50
2023/07/27 04:31:28;;;;;;;;;0.75;0.75;;;;;20.92;63.97;100670.00;4998139;28;66605;-49
2023/07/27 04:33:54;;;;;;;;;4.00;1.00;;;;;20.95;63.87;100665.16;5001382;28;45466;-48
2023/07/27 04:36:20;;;;;;;;;1.00;1.00;;;;;20.96;63.49;100663.28;5000704;28;59124;-50
2023/07/27 04:38:45;;;;;;;;;0.00;0.00;;;;;20.95;64.38;100656.19;5002757;28;45430;-47
2023/07/27 04:41:10;;;;;;;;;2.75;1.00;;;;;20.93;64.09;100669.00;5002408;28;61457;-45
2023/07/27 04:43:36;;;;;;;;;0.00;0.00;;;;;20.94;63.73;100660.75;5001827;28;65521;-45
2023/07/27 04:46:01;;;;;;;;;0.00;0.00;;;;;20.97;64.07;100670.41;4981558;28;55413;-44
2023/07/27 04:48:26;;;;;;;;;0.00;0.00;;;;;20.99;64.45;100671.13;4999575;28;57614;-47
2023/07/27 04:50:52;;;;;;;;;0.00;0.00;;;;;20.99;64.24;100666.56;5001687;28;67309;-46
2023/07/27 04:53:17;;;;;;;;;0.00;0.00;;;;;20.92;65.41;100672.72;4998046;28;45332;-48
2023/07/27 04:55:42;;;;;;;;;1.00;0.00;;;;;20.88;64.75;100663.19;5000682;28;70703;-47
2023/07/27 04:58:08;;;;;;;;;2.00;0.75;;;;;20.91;65.24;100657.47;5001584;28;61330;-46
2023/07/27 05:00:33;;;;;;;;;0.75;0.75;;;;;20.96;64.37;100657.88;5001697;28;59947;-48
2023/07/27 05:02:59;;;;;;;;;0.75;0.75;;;;;20.98;64.75;100654.03;5001199;28;67886;-46
2023/07/27 05:05:24;;;;;;;;;1.00;1.00;;;;;20.94;64.10;100641.81;5002322;28;46271;-46
2023/07/27 05:07:49;;;;;;;;;0.00;0.00;;;;;20.91;65.19;100644.84;5001813;28;63212;-46
2023/07/27 05:10:15;;;;;;;;;0.00;0.00;;;;;20.88;65.44;100652.38;5001462;28;64337;-44
2023/07/27 05:12:40;;;;;;;;;0.00;0.00;;;;;20.86;64.90;100657.94;5001292;28;70088;-46
2023/07/27 05:15:06;;;;;;;;;0.00;0.00;;;;;20.89;65.63;100662.19;5002246;28;47021;-44
2023/07/27 05:17:31;;;;;;;;;0.00;0.00;;;;;20.94;64.86;100666.16;5001923;28;45260;-46
2023/07/27 05:19:57;;;;;;;;;0.50;0.50;;;;;21.00;64.73;100656.59;5001043;28;66755;-46
2023/07/27 05:22:22;;;;;;;;;0.00;0.00;;;;;21.04;65.36;100666.13;5002281;28;45528;-44
2023/07/27 05:24:47;;;;;;;;;1.00;0.75;;;;;21.06;64.82;100656.00;5001260;28;70215;-44
2023/07/27 05:27:13;;;;;;;;;0.00;0.00;;;;;21.03;65.12;100656.31;5001487;28;45393;-45
2023/07/27 05:29:38;;;;;;;;;1.75;1.00;;;;;21.06;65.11;100674.09;5001033;28;66276;-45
2023/07/27 05:32:04;;;;;;;;;0.00;0.00;;;;;21.03;65.40;100661.72;5001036;28;58525;-44
2023/07/27 05:34:29;;;;;;;;;0.25;0.25;;;;;21.06;64.94;100656.00;5001572;28;46139;-45
2023/07/27 05:36:55;;;;;;;;;1.00;0.25;;;;;21.08;64.54;100659.41;5002031;28;45474;-46
2023/07/27 05:39:20;;;;;;;;;0.00;0.00;;;;;21.09;65.38;100663.84;5002015;28;45435;-47
2023/07/27 05:41:45;;;;;;;;;2.00;0.00;;;;;21.09;64.99;100665.66;5001395;28;49123;-44
2023/07/27 05:44:10;;;;;;;;;0.25;0.25;;;;;21.12;64.61;100651.88;5000305;28;72307;-45
2023/07/27 05:46:36;;;;;;;;;0.00;0.00;;;;;21.16;64.92;100666.78;4999840;28;69893;-45
2023/07/27 05:49:01;;;;;;;;;0.00;0.00;;;;;21.14;64.61;100660.66;5001509;28;45695;-46
2023/07/27 05:51:26;;;;;;;;;0.00;0.00;;;;;21.14;64.81;100674.19;5000245;28;45389;-45
2023/07/27 05:53:52;;;;;;;;;0.00;0.00;;;;;21.16;64.32;100664.09;5000527;28;69195;-46
2023/07/27 05:56:17;;;;;;;;;0.25;0.25;;;;;21.18;64.61;100664.78;5001269;28;45437;-45
2023/07/27 05:58:43;;;;;;;;;1.25;0.00;;;;;21.21;64.70;100656.38;5001689;28;45413;-45
2023/07/27 06:01:08;;;;;;;;;0.50;0.00;;;;;21.21;64.85;100655.50;5000121;28;45599;-48
2023/07/27 06:03:34;;;;;;;;;2.00;1.00;;;;;21.23;64.74;100651.66;5001441;28;46100;-43
2023/07/27 06:05:59;;;;;;;;;0.50;0.50;;;;;21.24;64.43;100652.53;5000780;28;53921;-45
2023/07/27 06:08:25;;;;;;;;;0.00;0.00;;;;;21.25;64.67;100656.91;5001446;28;45388;-45
2023/07/27 06:11:01;;;;;;;;;1.00;0.00;;;;;21.29;64.05;100651.06;5001338;28;45367;-45
2023/07/27 06:13:26;;;;;;;;;1.00;1.00;;;;;21.35;63.98;100643.34;5001180;28;46325;-45
2023/07/27 06:15:52;;;;;;;;;0.50;0.00;;;;;21.42;64.09;100649.84;5001042;28;45342;-44
2023/07/27 06:18:17;;;;;;;;;1.00;1.00;;;;;21.51;63.91;100651.66;5000257;28;63989;-46
2023/07/27 06:20:42;;;;;;;;;0.75;0.75;;;;;21.60;64.45;100652.63;5000525;28;60826;-44
2023/07/27 06:23:08;;;;;;;;;1.00;1.00;;;;;21.56;63.53;100654.81;5000094;28;74504;-46
2023/07/27 06:25:33;;;;;;;;;0.75;0.75;;;;;21.51;63.84;100651.66;4999961;28;71904;-45
2023/07/27 06:27:58;;;;;;;;;1.00;1.00;;;;;21.49;63.00;100649.09;5000341;28;59840;-46
2023/07/27 06:30:23;;;;;;;;;0.00;0.00;;;;;21.43;62.92;100654.25;5000345;28;64286;-46
2023/07/27 06:32:49;;;;;;;;;0.75;0.75;;;;;21.45;63.15;100655.81;5000168;28;64287;-46
2023/07/27 06:35:14;;;;;;;;;1.00;1.00;;;;;21.54;62.49;100664.91;4999587;28;73446;-45
2023/07/27 06:37:40;;;;;;;;;1.00;1.00;;;;;21.49;62.58;100667.19;5000848;28;45326;-45
2023/07/27 06:40:06;;;;;;;;;0.75;0.75;;;;;21.52;62.75;100679.56;5000953;28;45830;-45
2023/07/27 06:42:31;;;;;;;;;0.75;0.75;;;;;21.56;62.62;100692.69;5000539;28;46108;-45
2023/07/27 06:44:57;;;;;;;;;1.00;1.00;;;;;21.61;61.75;100682.22;4999567;28;69653;-45
2023/07/27 06:47:22;;;;;;;;;1.00;1.00;;;;;21.79;61.31;100670.59;5000815;28;45441;-48
2023/07/27 06:49:48;;;;;;;;;2.00;2.00;;;;;22.05;60.92;100669.84;4999455;28;69852;-46
2023/07/27 06:52:13;;;;;;;;;2.25;1.25;;;;;23.08;60.10;100663.81;4999492;28;72852;-45
2023/07/27 06:54:39;;;;;;;;;1.00;1.00;;;;;25.71;55.27;100670.28;4999411;28;72492;-45
2023/07/27 06:57:09;;;;;;;;;1.00;1.00;;;;;29.16;53.03;100658.66;5000357;28;45431;-45
2023/07/27 06:59:34;;;;;;;;;1.25;1.25;;;;;30.08;42.27;100671.22;5000377;28;45928;-47
2023/07/27 07:02:00;;;;;;;;;1.50;1.50;;;;;29.02;43.35;100674.19;4997904;28;74572;-45
2023/07/27 07:04:25;;;;;;;;;0.25;0.25;;;;;27.83;44.94;100683.00;5000260;28;45420;-45
2023/07/27 07:06:51;;;;;;;;;0.25;0.25;;;;;26.81;46.12;100687.34;5000555;28;45713;-45
2023/07/27 07:09:16;;;;;;;;;2.25;2.25;;;;;26.36;47.69;100685.34;5000318;28;45962;-47
2023/07/27 07:11:42;;;;;;;;;1.75;1.75;;;;;26.48;47.95;100673.97;5000198;28;53132;-49
2023/07/27 07:14:07;;;;;;;;;1.00;1.00;;;;;26.61;47.30;100679.66;4997922;28;66808;-47
2023/07/27 07:16:32;;;;;;;;;3.25;2.00;;;;;26.73;46.63;100674.63;4999227;28;67411;-44
2023/07/27 07:18:58;;;;;;;;;2.00;2.00;;;;;26.42;46.87;100678.28;4999936;28;46306;-45
2023/07/27 07:21:23;;;;;;;;;2.00;2.00;;;;;26.06;46.90;100681.63;4999297;28;68728;-46
2023/07/27 07:23:48;;;;;;;;;2.75;2.75;;;;;27.05;47.01;100684.34;4999449;28;69263;-45
2023/07/27 07:26:14;;;;;;;;;2.50;2.50;;;;;29.02;42.39;100678.78;5000053;28;48923;-45
2023/07/27 07:28:39;;;;;;;;;3.00;3.00;;;;;30.50;40.55;100678.25;4999718;28;45522;-45
2023/07/27 07:31:06;;;;;;;;;3.50;2.00;;;;;31.18;36.70;100682.59;4999064;28;65309;-50
2023/07/27 07:33:31;;;;;;;;;2.00;2.00;;;;;30.76;38.22;100678.44;4999671;28;45329;-46
2023/07/27 07:35:56;;;;;;;;;5.25;3.00;;;;;32.23;37.29;100677.00;4999854;28;45226;-49
2023/07/27 07:38:22;;;;;;;;;2.00;2.00;;;;;33.66;35.34;100679.75;4998915;28;68419;-45
2023/07/27 07:40:47;;;;;;;;;2.50;2.00;;;;;34.76;34.13;100680.41;4999878;28;45334;-46
2023/07/27 07:43:12;;;;;;;;;2.00;1.75;;;;;36.09;33.53;100691.72;4997233;28;69767;-46
2023/07/27 07:45:37;;;;;;;;;2.50;2.00;;;;;37.55;31.08;100688.91;4999603;28;51138;-47
2023/07/27 07:48:03;;;;;;;;;2.00;2.00;;;;;38.29;29.76;100688.56;4999014;28;60533;-45
2023/07/27 07:50:29;;;;;;;;;1.50;1.50;;;;;38.98;28.01;100682.13;5000617;28;46914;-50
2023/07/27 07:52:54;;;;;;;;;3.50;1.50;;;;;39.67;28.06;100688.56;4999609;28;45360;-50
2023/07/27 07:55:19;;;;;;;;;2.00;1.50;;;;;39.26;25.22;100693.94;4999435;28;45807;-49
2023/07/27 07:57:45;;;;;;;;;2.00;2.00;;;;;37.52;27.67;100696.91;4998041;28;49756;-46
2023/07/27 08:00:10;;;;;;;;;0.75;0.75;;;;;35.30;28.03;100689.59;4998923;28;69945;-49
2023/07/27 08:02:36;;;;;;;;;0.50;0.50;;;;;33.53;30.46;100702.84;4999280;28;45406;-48
2023/07/27 08:05:01;;;;;;;;;2.75;1.50;;;;;32.12;31.74;100690.41;4998778;28;65563;-47
2023/07/27 08:07:26;;;;;;;;;0.00;0.00;;;;;31.72;33.08;100684.28;4995034;28;45622;-45
2023/07/27 08:09:52;;;;;;;;;5.00;2.00;;;;;31.56;32.73;100686.44;4998219;28;47646;-45
2023/07/27 08:12:18;;;;;;;;;0.00;0.00;;;;;31.36;32.89;100683.81;4996213;28;45392;-46
2023/07/27 08:14:43;;;;;;;;;0.00;0.00;;;;;31.00;33.90;100674.16;5003228;28;45399;-48
2023/07/27 08:17:08;;;;;;;;;0.00;0.00;;;;;30.54;34.30;100672.34;5002656;28;52195;-45
2023/07/27 08:19:33;;;;;;;;;2.25;1.50;;;;;30.38;34.68;100679.91;5003168;28;46210;-45
2023/07/27 08:21:59;;;;;;;;;2.00;2.00;;;;;29.70;35.01;100675.34;5003227;28;71177;-45
2023/07/27 08:24:24;;;;;;;;;0.00;0.00;;;;;29.07;35.86;100680.94;5002174;28;67587;-47
2023/07/27 08:26:50;;;;;;;;;1.75;0.75;;;;;28.46;36.62;100680.50;5002540;28;45483;-44
2023/07/27 08:29:15;;;;;;;;;0.50;0.50;;;;;27.72;37.67;100682.47;5001513;28;74648;-46
2023/07/27 08:31:41;;;;;;;;;1.25;1.00;;;;;27.00;38.71;100673.13;5000916;28;45326;-47
2023/07/27 08:34:06;;;;;;;;;0.50;0.50;;;;;26.41;39.42;100673.84;5001329;28;45466;-46
2023/07/27 08:36:32;;;;;;;;;0.00;0.00;;;;;25.96;40.68;100683.72;5002086;28;64035;-49
2023/07/27 08:38:58;;;;;;;;;1.00;1.00;;;;;25.54;41.63;100683.09;5002510;28;46920;-48
2023/07/27 08:41:25;;;;;;;;;1.00;1.00;;;;;25.18;42.27;100673.53;5002361;28;45428;-45
2023/07/27 08:43:51;;;;;;;;;1.75;1.00;;;;;24.95;42.92;100673.44;4998261;28;45664;-48
2023/07/27 08:46:18;;;;;;;;;0.50;0.50;;;;;24.76;43.63;100678.25;4995180;28;45468;-45
2023/07/27 08:48:43;;;;;;;;;1.00;1.00;;;;;24.56;44.27;100669.59;5002205;28;46154;-46
2023/07/27 08:51:09;;;;;;;;;3.00;1.00;;;;;24.56;44.64;100672.31;5002464;28;45510;-45
2023/07/27 08:53:34;;;;;;;;;1.25;0.25;;;;;24.68;45.13;100682.84;5001425;28;58328;-50
2023/07/27 08:55:59;;;;;;;;;0.25;0.25;;;;;24.77;43.78;100666.34;5002467;28;64757;-49
2023/07/27 08:58:25;;;;;;;;;2.00;1.25;;;;;24.92;43.91;100668.38;5001427;28;73593;-44
2023/07/27 09:00:50;;;;;;;;;4.00;2.50;;;;;25.02;44.46;100666.28;4996543;28;60648;-46
2023/07/27 09:03:16;;;;;;;;;3.25;1.50;;;;;25.04;44.24;100668.84;5000883;28;61257;-47
2023/07/27 09:05:43;;;;;;;;;2.25;1.00;;;;;24.96;44.56;100666.97;4999975;28;65084;-45
2023/07/27 09:08:13;;;;;;;;;1.00;1.00;;;;;24.90;44.26;100663.09;4997358;28;46324;-46
2023/07/27 09:10:39;;;;;;;;;1.00;0.50;;;;;25.00;44.59;100679.22;4995169;28;45381;-49
2023/07/27 09:13:05;;;;;;;;;0.00;0.00;;;;;24.91;44.04;100675.69;5001904;28;45463;-46
2023/07/27 09:15:32;;;;;;;;;1.00;1.00;;;;;24.81;44.54;100685.91;5001777;28;45698;-45
2023/07/27 09:17:58;;;;;;;;;0.25;0.25;;;;;24.79;45.47;100670.78;4997102;28;45457;-48
2023/07/27 09:20:33;;;;;;;;;0.50;0.50;;;;;24.93;45.16;100680.94;4994288;28;45163;-45
2023/07/27 09:22:59;;;;;;;;;1.00;1.00;;;;;25.09;44.41;100671.88;4996807;28;52480;-46
2023/07/27 09:25:24;;;;;;;;;0.25;0.25;;;;;25.11;44.11;100672.56;4996845;28;45281;-44
2023/07/27 09:27:54;;;;;;;;;1.00;1.00;;;;;25.07;44.28;100673.91;5001655;28;45857;-46
2023/07/27 09:30:20;;;;;;;;;1.00;1.00;;;;;25.15;44.51;100671.19;5001735;28;45487;-50
2023/07/27 09:32:47;;;;;;;;;0.50;0.50;;;;;25.22;44.15;100674.88;5001429;28;45368;-47
2023/07/27 09:35:14;;;;;;;;;1.00;1.00;;;;;25.25;44.46;100670.97;5001595;28;45361;-47
2023/07/27 09:37:43;;;;;;;;;0.00;0.00;;;;;25.20;44.85;100666.06;5001723;28;46631;-46
2023/07/27 09:40:14;;;;;;;;;0.00;0.00;;;;;25.20;44.36;100676.94;5001839;28;45415;-45
2023/07/27 09:42:43;;;;;;;;;2.00;0.75;;;;;25.39;44.37;100678.41;5001853;28;45311;-45
2023/07/27 09:45:09;;;;;;;;;1.00;1.00;;;;;25.64;44.81;100672.84;4984069;28;45397;-45
2023/07/27 09:47:34;;;;;;;;;1.00;1.00;;;;;25.95;44.32;100677.44;5001346;28;46486;-46
2023/07/27 09:50:01;;;;;;;;;1.00;1.00;;;;;26.29;43.20;100662.56;5001494;28;45364;-45
2023/07/27 09:52:27;;;;;;;;;3.00;1.75;;;;;26.57;43.15;100665.53;5001760;28;45613;-46
2023/07/27 09:54:57;;;;;;;;;2.00;1.00;;;;;26.99;42.91;100651.50;5001526;28;45489;-45
2023/07/27 09:57:23;;;;;;;;;1.75;1.25;;;;;27.30;42.17;100659.47;5001683;28;46705;-47
2023/07/27 09:59:49;;;;;;;;;1.00;1.00;;;;;27.38;41.81;100666.75;5001317;28;45484;-48
2023/07/27 10:02:14;;;;;;;;;2.75;1.00;;;;;27.30;41.77;100670.41;5000190;28;45563;-45
2023/07/27 10:04:43;;;;;;;;;2.50;2.25;;;;;27.19;41.79;100679.88;5001395;28;45353;-46
2023/07/27 10:07:09;;;;;;;;;0.75;0.75;;;;;26.93;41.66;100668.63;5001155;28;47032;-46
2023/07/27 10:09:36;;;;;;;;;2.00;2.00;;;;;26.68;42.15;100666.13;5001072;28;45388;-47
2023/07/27 10:12:03;;;;;;;;;1.00;1.00;;;;;26.54;42.12;100667.78;5001211;28;45511;-45
2023/07/27 10:14:29;;;;;;;;;1.25;1.25;;;;;26.45;42.16;100658.81;4999680;28;45440;-46
2023/07/27 10:16:59;;;;;;;;;3.25;2.00;;;;;26.40;42.71;100659.41;4979804;28;47381;-47
2023/07/27 10:19:25;;;;;;;;;2.50;2.25;;;;;26.29;43.05;100648.09;4998678;28;45301;-49
2023/07/27 10:21:51;;;;;;;;;2.00;2.00;;;;;26.15;42.43;100655.19;5001308;28;45463;-47
2023/07/27 10:24:23;;;;;;;;;3.00;2.00;;;;;26.03;42.92;100660.19;5001217;28;45451;-46
2023/07/27 10:26:49;;;;;;;;;1.50;1.50;;;;;25.92;43.21;100656.00;5000454;28;46273;-49
2023/07/27 10:29:27;;;;;;;;;3.50;2.00;;;;;25.94;43.17;100662.09;5000725;28;45495;-44
2023/07/27 10:32:03;;;;;;;;;3.00;1.75;;;;;25.94;43.36;100664.81;4999943;28;45503;-46
2023/07/27 10:34:30;;;;;;;;;2.00;2.00;;;;;25.98;43.17;100659.88;5000918;28;45694;-44
2023/07/27 10:36:57;;;;;;;;;2.25;2.00;;;;;26.04;43.60;100686.44;5000482;28;46178;-45
2023/07/27 10:39:34;;;;;;;;;2.33;2.00;;;;;26.05;43.34;100669.06;5000422;28;45365;-49
2023/07/27 10:42:08;;;;;;;;;2.25;2.00;;;;;26.02;43.28;100678.41;4999189;28;45341;-45
2023/07/27 10:44:42;;;;;;;;;3.00;2.00;;;;;25.87;42.94;100670.16;5000548;28;45403;-46
2023/07/27 10:47:19;;;;;;;;;5.00;3.00;;;;;25.78;43.69;100663.06;5000323;28;46395;-44
2023/07/27 10:49:46;;;;;;;;;4.25;2.00;;;;;25.84;43.90;100667.81;5000429;28;45248;-47
2023/07/27 10:52:21;;;;;;;;;2.00;2.00;;;;;25.89;43.55;100679.00;5000492;28;45496;-44
2023/07/27 10:54:48;;;;;;;;;2.75;2.50;;;;;25.82;43.20;100677.19;5000374;28;45493;-47
2023/07/27 10:57:14;;;;;;;;;2.00;2.00;;;;;25.77;43.48;100680.44;4999086;28;48456;-48
2023/07/27 10:59:42;;;;;;;;;2.00;2.00;;;;;25.68;43.21;100678.78;5000507;28;45417;-45
2023/07/27 11:02:15;;;;;;;;;3.75;2.00;;;;;25.45;44.22;100676.88;5000294;28;45599;-47
2023/07/27 11:04:41;;;;;;;;;3.75;2.00;;;;;25.15;44.53;100670.31;5000352;28;45354;-45
2023/07/27 11:07:09;;;;;;;;;2.25;2.25;;;;;24.95;45.44;100665.28;5000433;28;46233;-48
2023/07/27 11:09:34;;;;;;;;;0.00;0.00;;;;;24.81;46.57;100669.59;5000415;28;45341;-45
2023/07/27 11:12:03;;;;;;;;;1.75;1.75;;;;;24.68;47.24;100674.69;4998687;28;45449;-46
2023/07/27 11:14:29;;;;;;;;;19.33;18.00;;;;;24.61;48.44;100675.38;4999783;28;45628;-46
2023/07/27 11:16:54;;;;;;;;;1.50;1.00;;;;;24.59;49.09;100669.25;4999789;28;46070;-45
2023/07/27 11:19:21;;;;;;;;;3.00;2.00;;;;;24.58;48.83;100669.41;4999231;28;65835;-48
2023/07/27 11:21:49;;;;;;;;;2.00;2.00;;;;;24.53;49.12;100672.63;4999193;28;67245;-47
2023/07/27 11:24:15;;;;;;;;;0.75;0.75;;;;;24.49;48.96;100671.28;5000019;28;45360;-45